Portada
METAR-TAF:

METAR-TAF

Aeroports :

Marion, Carolina del Sud, Estats Units d'Amèrica

latitud: 34-10-52N, longitud: 079-20-05W, altitud: 28 m

Observació

L'informe es va fer fa 27 minuts, a les 12:35 UTC
Vent calma
Temperatura 5°C
Humitat 100%
Pressió 1011 hPa
Visibilitat: 0.4 km
Cel cobert a una alçada de 200 ft
boira

METAR: KMAO 191235Z AUTO 00000KT 1/4SM FG OVC002 05/05 A2986 RMK AO2

Hora: 08:02 (13:02 UTC)


TAF: manca

Observacions i pronòstics meteorològics de més de 4000 aeroports (METAR i TAF).

Les estacions disponibles són els punts grocs i vermells al mapa.

Posi el ratolí al punt desitjat per veure el nom de l'estació.

Feu clic per veure les observacions i els pronòstics meteorològics.

Per canviar el mapa: feu clic els botons verds amb una creu de color negre per apropar; al botó verd amb un guió per allunyar la imatge; o en les fletxes verdes per a mapes adjacents.


METAR-TAF: